Latest Coastal Weather Observations for Yanakie

IDV60701

Issued at 9:11 am EDT Thursday 19 January 2017 (issued every 10 minutes, with the page automatically refreshed every 10 minutes)

About coastal observations | Map of coastal stations | Coastal observations for VIC | Marine services | Other Formats
Station Details ID: 085301 Name: YANAKIE Lat: -38.81 Lon: 146.19 Height: 13.3 m
Data from the previous 72 hours. | See also: Recent months at Yanakie
Date/Time
EDT
Temp
°C
Wind Pressure Rain since
9am
mm
Weather Cloud Vis
km
Sea
Height
m
Swell
Dir  Spd
kts
Gust
kts
hPa Trend Height
m
Period
s
Dir
19/09:00am 16.9 ENE 4 7 1015.1 - 0.0 - - - - - - -
19/08:30am 15.2 N 2 3 1015.1 - 0.0 - - - - - - -
19/08:00am 13.2 CALM 0 0 1015.0 - 0.0 - - - - - - -
19/07:30am 12.1 CALM 0 0 1014.8 - 0.0 - - - - - - -
19/07:00am 8.4 CALM 0 0 1014.9 - 0.0 - - - - - - -
19/06:30am 4.8 CALM 0 2 1014.9 - 0.0 - - - - - - -
19/06:00am 6.6 CALM 0 0 1014.7 - 0.0 - - - - - - -
19/05:30am 5.9 NNE 1 3 1014.7 - 0.0 - - - - - - -
19/05:00am 6.8 CALM 0 1 1014.4 - 0.0 - - - - - - -
19/04:30am 6.9 CALM 0 2 1014.3 - 0.0 - - - - - - -
19/04:00am 6.7 CALM 0 0 1014.5 - 0.0 - - - - - - -
19/03:30am 7.3 CALM 0 0 1014.8 - 0.0 - - - - - - -
19/03:00am 7.7 CALM 0 0 1014.9 - 0.0 - - - - - - -
19/02:30am 8.3 NNW 3 3 1015.3 - 0.0 - - - - - - -
19/02:00am 9.3 N 2 3 1015.7 - 0.0 - - - - - - -
19/01:30am 10.0 CALM 0 0 1016.0 - 0.0 - - - - - - -
19/01:00am 12.2 S 4 7 1016.1 - 0.0 - - - - - - -
19/12:30am 11.8 SW 3 3 1016.3 - 0.0 - - - - - - -
19/12:00am 12.6 SSW 3 4 1016.6 - 0.0 - - - - - - -
 
Date/Time
EDT
Temp
°C
Wind Pressure Rain since
9am
mm
Weather Cloud Vis
km
Sea
Height
m
Swell
Dir  Spd
kts
Gust
kts
hPa Trend Height
m
Period
s
Dir
18/11:30pm 13.5 S 5 9 1016.9 - 0.0 - - - - - - -
18/11:00pm 13.4 SSW 5 7 1016.9 - 0.0 - - - - - - -
18/10:30pm 13.6 SSW 9 12 1016.7 - 0.0 - - - - - - -
18/10:00pm 13.9 SW 7 11 1016.9 - 0.0 - - - - - - -
18/09:30pm 14.3 SW 12 17 1016.5 - 0.0 - - - - - - -
18/09:00pm 14.6 SW 10 15 1016.8 - 0.0 - - - - - - -
18/08:30pm 14.7 SW 11 15 1016.5 - 0.0 - - - - - - -
18/08:00pm 15.5 SW 11 15 1016.3 - 0.0 - - - - - - -
18/07:30pm 16.4 SW 13 18 1016.1 - 0.0 - - - - - - -
18/07:00pm 16.9 SW 14 18 1015.9 - 0.0 - - - - - - -
18/06:30pm 17.4 SW 14 21 1015.8 - 0.0 - - - - - - -
18/06:00pm 18.2 SW 15 19 1015.8 - 0.0 - - - - - - -
18/05:30pm 18.9 SW 14 18 1015.7 - 0.0 - - - - - - -
18/05:00pm 17.7 SW 14 19 1015.7 - 0.0 - - - - - - -
18/04:30pm 19.0 SW 15 19 1015.6 - 0.0 - - - - - - -
18/04:00pm 19.2 SW 16 21 1015.6 - 0.0 - - - - - - -
18/03:30pm 18.9 SW 16 21 1015.6 - 0.0 - - - - - - -
18/03:00pm 19.1 SW 16 21 1015.6 - 0.0 - - - - - - -
18/02:30pm 19.4 WSW 17 23 1015.5 - 0.0 - - - - - - -
18/02:00pm 19.6 SW 17 24 1015.4 - 0.0 - - - - - - -
18/01:30pm 19.1 SW 18 24 1015.1 - 0.0 - - - - - - -
18/01:00pm 19.8 SW 18 25 1014.8 - 0.0 - - - - - - -
18/12:30pm 19.1 SW 19 26 1014.6 - 0.0 - - - - - - -
18/12:00pm 20.0 SW 19 26 1014.3 - 0.0 - - - - - - -
18/11:30am 18.3 SW 18 25 1013.9 - 0.0 - - - - - - -
18/11:00am 17.4 WSW 19 26 1013.5 - 0.0 - - - - - - -
18/10:30am 18.8 WSW 18 25 1012.9 - 0.0 - - - - - - -
18/10:00am 18.3 WSW 19 25 1012.6 - 0.0 - - - - - - -
18/09:30am 17.0 WSW 15 21 1012.3 - 0.0 - - - - - - -
18/09:00am 17.2 WSW 17 24 1012.2 - 0.4 - - - - - - -
18/08:30am 16.7 SW 17 23 1011.9 - 0.4 - - - - - - -
18/08:00am 16.4 SW 18 24 1011.4 - 0.4 - - - - - - -
18/07:30am 15.9 SW 17 26 1010.8 - 0.4 - - - - - - -
18/07:00am 15.6 SW 16 22 1009.9 - 0.4 - - - - - - -
18/06:30am 15.7 SW 18 25 1009.4 - 0.4 - - - - - - -
18/06:00am 16.1 SW 17 23 1008.9 - 0.4 - - - - - - -
18/05:30am 15.9 W 14 18 1008.3 - 0.4 - - - - - - -
18/05:00am 16.0 W 13 17 1007.8 - 0.4 - - - - - - -
18/04:30am 16.1 W 15 19 1007.3 - 0.4 - - - - - - -
18/04:00am 16.4 WSW 13 18 1008.2 - 0.2 - - - - - - -
18/03:30am 17.7 W 15 19 1007.9 - 0.0 - - - - - - -
18/03:00am 18.3 WSW 15 21 1008.6 - 0.0 - - - - - - -
18/02:30am 18.8 W 15 21 1008.3 - 0.0 - - - - - - -
18/02:00am 19.6 W 15 20 1008.2 - 0.0 - - - - - - -
18/01:30am 19.6 W 13 18 1008.2 - 0.0 - - - - - - -
18/01:00am 19.4 WNW 8 11 1008.4 - 0.0 - - - - - - -
18/12:30am 19.4 NW 5 6 1008.4 - 0.0 - - - - - - -
18/12:00am 18.7 NW 5 6 1008.9 - 0.0 - - - - - - -
 
Date/Time
EDT
Temp
°C
Wind Pressure Rain since
9am
mm
Weather Cloud Vis
km
Sea
Height
m
Swell
Dir  Spd
kts
Gust
kts
hPa Trend Height
m
Period
s
Dir
17/11:30pm 19.1 WNW 5 6 1009.1 - 0.0 - - - - - - -
17/11:00pm 18.9 WSW 2 4 1009.2 - 0.0 - - - - - - -
17/10:30pm 20.2 WSW 5 6 1009.3 - 0.0 - - - - - - -
17/10:00pm 20.8 WSW 4 6 1008.6 - 0.0 - - - - - - -
17/09:30pm 20.9 WSW 5 7 1007.3 - 0.0 - - - - - - -
17/09:00pm 20.8 WSW 6 7 1006.7 - 0.0 - - - - - - -
17/08:30pm 21.5 W 4 5 1006.0 - 0.0 - - - - - - -
17/08:00pm 22.9 SW 3 5 1005.4 - 0.0 - - - - - - -
17/07:30pm 23.7 SSW 4 6 1005.1 - 0.0 - - - - - - -
17/07:00pm 24.5 SW 6 7 1005.0 - 0.0 - - - - - - -
17/06:30pm 24.3 SSW 8 10 1005.5 - 0.0 - - - - - - -
17/06:00pm 27.2 WSW 7 9 1005.5 - 0.0 - - - - - - -
17/05:30pm 27.8 W 8 12 1005.7 - 0.0 - - - - - - -
17/05:00pm 28.4 WSW 7 10 1006.2 - 0.0 - - - - - - -
17/04:30pm 28.3 W 7 9 1006.2 - 0.0 - - - - - - -
17/04:00pm 28.9 WSW 14 19 1006.2 - 0.0 - - - - - - -
17/03:30pm 31.2 W 15 20 1006.5 - 0.0 - - - - - - -
17/03:00pm 32.3 WNW 15 20 1006.4 - 0.0 - - - - - - -
17/02:30pm 32.5 W 17 25 1006.8 - 0.0 - - - - - - -
17/02:00pm 31.3 WNW 16 21 1007.0 - 0.0 - - - - - - -
17/01:30pm 31.0 W 11 14 1007.4 - 0.0 - - - - - - -
17/01:00pm 28.4 SW 8 11 1007.6 - 0.0 - - - - - - -
17/12:30pm 29.9 WSW 9 12 1007.5 - 0.0 - - - - - - -
17/12:00pm 30.1 WSW 7 11 1007.4 - 0.0 - - - - - - -
17/11:30am 30.1 W 8 12 1007.4 - 0.0 - - - - - - -
17/11:00am 28.3 W 6 9 1007.7 - 0.0 - - - - - - -
17/10:30am 26.3 WSW 6 9 1008.0 - 0.0 - - - - - - -
17/10:00am 24.9 WSW 1 3 1008.1 - 0.0 - - - - - - -
17/09:30am 23.5 SSW 3 5 1008.4 - 0.0 - - - - - - -
17/09:00am 23.0 WSW 4 6 1008.7 - 0.0 - - - - - - -
17/08:30am 21.7 W 4 6 1008.7 - 0.0 - - - - - - -
17/08:00am 18.7 W 5 7 1008.5 - 0.0 - - - - - - -
17/07:30am 16.8 CALM 0 0 1008.3 - 0.0 - - - - - - -
17/07:00am 15.4 NNE 2 5 1007.8 - 0.0 - - - - - - -
17/06:30am 14.9 CALM 0 0 1007.6 - 0.0 - - - - - - -
17/06:00am 14.0 WNW 1 2 1007.6 - 0.0 - - - - - - -
17/05:30am 14.2 NE 1 2 1007.2 - 0.0 - - - - - - -
17/05:00am 14.1 NE 1 2 1007.1 - 0.0 - - - - - - -
17/04:30am 14.2 CALM 0 0 1006.9 - 0.0 - - - - - - -
17/04:00am 15.8 NE 2 3 1006.7 - 0.0 - - - - - - -
17/03:30am 16.3 NNE 1 3 1007.2 - 0.0 - - - - - - -
17/03:00am 17.2 NNE 2 3 1007.5 - 0.0 - - - - - - -
17/02:30am 17.6 NE 3 5 1007.9 - 0.0 - - - - - - -
17/02:00am 17.7 NE 4 5 1008.1 - 0.0 - - - - - - -
17/01:30am 17.6 ENE 4 6 1008.7 - 0.0 - - - - - - -
17/01:00am 17.5 ENE 1 3 1009.2 - 0.0 - - - - - - -
17/12:30am 17.9 ESE 3 6 1009.6 - 0.0 - - - - - - -
17/12:00am 18.1 ENE 3 5 1009.8 - 0.0 - - - - - - -
 
Date/Time
EDT
Temp
°C
Wind Pressure Rain since
9am
mm
Weather Cloud Vis
km
Sea
Height
m
Swell
Dir  Spd
kts
Gust
kts
hPa Trend Height
m
Period
s
Dir
16/11:30pm 18.0 ENE 6 9 1009.9 - 0.0 - - - - - - -
16/11:00pm 17.8 E 4 6 1011.0 - 0.0 - - - - - - -
16/10:30pm 17.9 E 4 7 1011.0 - 0.0 - - - - - - -
16/10:00pm 18.1 E 5 7 1011.1 - 0.0 - - - - - - -
16/09:30pm 18.4 E 6 8 1011.0 - 0.0 - - - - - - -
16/09:00pm 18.3 ENE 8 12 1011.2 - 0.0 - - - - - - -
16/08:30pm 18.6 ENE 9 12 1011.2 - 0.0 - - - - - - -
16/08:00pm 19.7 ENE 8 11 1011.2 - 0.0 - - - - - - -
16/07:30pm 20.6 ENE 8 11 1011.4 - 0.0 - - - - - - -
16/07:00pm 21.3 ENE 8 12 1011.5 - 0.0 - - - - - - -
16/06:30pm 22.7 NE 6 9 1011.3 - 0.0 - - - - - - -
16/06:00pm 23.4 NNE 2 6 1011.5 - 0.0 - - - - - - -
16/05:30pm 24.0 WSW 3 5 1011.7 - 0.0 - - - - - - -
16/05:00pm 23.0 SW 5 7 1012.2 - 0.0 - - - - - - -
16/04:30pm 22.5 SSW 5 8 1012.4 - 0.0 - - - - - - -
16/04:00pm 22.1 SW 7 9 1012.9 - 0.0 - - - - - - -
16/03:30pm 22.4 SW 7 10 1013.1 - 0.0 - - - - - - -
16/03:00pm 21.4 SSW 9 13 1013.4 - 0.0 - - - - - - -
16/02:30pm 21.7 SSW 9 14 1013.7 - 0.0 - - - - - - -
16/02:00pm 20.7 SSW 10 14 1014.0 - 0.0 - - - - - - -
16/01:30pm 20.7 SSW 10 13 1014.4 - 0.0 - - - - - - -
16/01:00pm 21.0 SSW 12 16 1014.7 - 0.0 - - - - - - -
16/12:30pm 21.6 SW 8 11 1014.3 - 0.0 - - - - - - -
16/12:00pm 20.7 SW 6 8 1014.4 - 0.0 - - - - - - -
16/11:30am 20.5 SW 8 12 1015.1 - 0.0 - - - - - - -
16/11:00am 20.3 SW 6 9 1015.3 - 0.0 - - - - - - -
16/10:30am 19.0 SW 5 11 1015.6 - 0.0 - - - - - - -
16/10:00am 19.4 W 6 11 1015.8 - 0.0 - - - - - - -
16/09:30am 18.3 W 5 10 1015.9 - 0.0 - - - - - - -

Other Formats:

Comma delimited format used in spreadsheet applications
http://www.bom.gov.au/fwo/IDV60701/IDV60701.94911.axf

JavaScript Object Notation format (JSON) in row-major order
http://www.bom.gov.au/fwo/IDV60701/IDV60701.94911.json